createdAt,value
2019-01-12T00:02:11.945Z,10.72
2019-01-12T00:05:15.243Z,21.65
2019-01-12T00:08:18.027Z,26.93
2019-01-12T00:11:21.834Z,19.20
2019-01-12T00:14:25.386Z,18.90
2019-01-12T00:17:28.687Z,13.93
2019-01-12T00:20:35.052Z,12.05
2019-01-12T00:23:39.114Z,27.87
2019-01-12T00:26:42.671Z,23.18
2019-01-12T00:29:46.742Z,15.23
2019-01-12T00:32:50.025Z,16.30
2019-01-12T00:35:53.831Z,14.03
2019-01-12T00:38:57.139Z,25.25
2019-01-12T00:42:01.702Z,14.13
2019-01-12T00:45:05.004Z,20.15
2019-01-12T00:48:07.787Z,25.05
2019-01-12T00:51:11.084Z,11.22
2019-01-12T00:54:15.659Z,14.73
2019-01-12T00:57:18.695Z,18.35
2019-01-12T01:00:21.989Z,9.38
2019-01-12T01:03:25.032Z,12.23
2019-01-12T01:06:28.342Z,26.57
2019-01-12T01:09:27.369Z,20.75
2019-01-12T01:12:30.830Z,16.70
2019-01-12T01:15:35.402Z,8.68
2019-01-12T01:18:38.447Z,22.55
2019-01-12T01:21:41.483Z,12.95
2019-01-12T01:24:47.597Z,23.47
2019-01-12T01:27:50.376Z,18.10
2019-01-12T01:30:53.419Z,11.88
2019-01-12T01:33:56.714Z,22.30
2019-01-12T01:37:02.569Z,24.18
2019-01-12T01:40:05.101Z,20.30
2019-01-12T01:43:08.650Z,27.27
2019-01-12T01:46:11.687Z,23.02
2019-01-12T01:49:14.727Z,11.83
2019-01-12T01:52:17.513Z,33.08
2019-01-12T01:55:20.551Z,16.67
2019-01-12T01:58:23.339Z,29.50
2019-01-12T02:01:26.377Z,22.50
2019-01-12T02:04:29.929Z,18.73
2019-01-12T02:07:32.967Z,15.30
2019-01-12T02:10:36.264Z,16.23
2019-01-12T02:13:40.075Z,31.10
2019-01-12T02:16:43.112Z,20.20
2019-01-12T02:19:45.897Z,18.07
2019-01-12T02:22:49.447Z,27.87
2019-01-12T02:25:55.305Z,32.55
2019-01-12T02:28:58.349Z,35.58
2019-01-12T02:32:01.643Z,32.08
2019-01-12T02:35:04.425Z,25.92
2019-01-12T02:38:07.473Z,16.10
2019-01-12T02:41:10.510Z,20.40
2019-01-12T02:44:13.803Z,31.90
2019-01-12T02:47:17.869Z,16.87
2019-01-12T02:50:21.164Z,24.37
2019-01-12T02:53:24.718Z,24.15
2019-01-12T02:56:29.033Z,16.25
2019-01-12T02:59:31.819Z,33.18
2019-01-12T03:02:34.865Z,26.17
2019-01-12T03:05:37.641Z,19.27
2019-01-12T03:08:41.961Z,44.42
2019-01-12T03:11:41.420Z,32.40
2019-01-12T03:14:44.202Z,18.55
2019-01-12T03:17:46.986Z,15.03
2019-01-12T03:20:50.039Z,18.40
2019-01-12T03:23:53.068Z,26.45
2019-01-12T03:26:55.849Z,16.20
2019-01-12T03:29:58.634Z,11.97
2019-01-12T03:33:01.934Z,15.08
2019-01-12T03:36:04.716Z,20.10
2019-01-12T03:39:07.756Z,35.38
2019-01-12T03:42:11.051Z,31.23
2019-01-12T03:45:14.098Z,14.63
2019-01-12T03:48:16.884Z,31.65
2019-01-12T03:51:19.912Z,18.77
2019-01-12T03:54:22.955Z,26.62
2019-01-12T03:57:25.995Z,16.85
2019-01-12T04:00:25.466Z,20.72
2019-01-12T04:03:28.487Z,24.35
2019-01-12T04:06:31.286Z,32.13
2019-01-12T04:09:35.341Z,26.82
2019-01-12T04:12:38.889Z,19.80
2019-01-12T04:15:41.673Z,17.60
2019-01-12T04:18:44.461Z,18.90
2019-01-12T04:21:47.501Z,18.23
2019-01-12T04:24:51.817Z,24.72
2019-01-12T04:27:56.657Z,12.53
2019-01-12T04:31:00.976Z,16.32
2019-01-12T04:34:04.043Z,27.90
2019-01-12T04:37:08.706Z,21.57
2019-01-12T04:40:14.960Z,22.93
2019-01-12T04:43:26.452Z,27.75
2019-01-12T04:49:44.816Z,33.75
2019-01-12T04:52:55.275Z,31.55
2019-01-12T04:55:58.825Z,25.48
2019-01-12T04:59:10.354Z,29.80
2019-01-12T05:02:13.353Z,29.77
2019-01-12T05:05:18.450Z,20.60
2019-01-12T05:08:22.761Z,28.20
2019-01-12T05:11:26.056Z,19.10
2019-01-12T05:14:32.188Z,23.45
2019-01-12T05:17:37.834Z,20.55
2019-01-12T05:20:45.690Z,40.63
2019-01-12T05:23:49.741Z,20.72
2019-01-12T05:26:53.554Z,25.80
2019-01-12T05:29:57.101Z,19.57
2019-01-12T05:32:59.880Z,28.95
2019-01-12T05:36:03.175Z,21.48
2019-01-12T05:39:08.674Z,18.85
2019-01-12T05:42:24.388Z,21.95
2019-01-12T05:45:29.729Z,29.67
2019-01-12T05:48:36.328Z,20.10
2019-01-12T05:51:39.367Z,21.95
2019-01-12T05:54:42.410Z,19.10
2019-01-12T05:57:45.197Z,24.85
2019-01-12T06:00:47.979Z,29.90
2019-01-12T06:03:51.027Z,23.42
2019-01-12T06:06:54.055Z,23.42
2019-01-12T06:09:56.840Z,21.50
2019-01-12T06:12:59.879Z,19.73
2019-01-12T06:16:03.436Z,24.55
2019-01-12T06:19:06.476Z,28.07
2019-01-12T06:22:09.260Z,22.32
2019-01-12T06:25:12.296Z,20.48
2019-01-12T06:28:16.107Z,16.62
2019-01-12T06:31:19.151Z,17.87
2019-01-12T06:34:22.953Z,19.02
2019-01-12T06:37:25.999Z,22.45
2019-01-12T06:40:29.544Z,18.45
2019-01-12T06:43:32.585Z,21.45
2019-01-12T06:46:35.624Z,22.42
2019-01-12T06:49:38.920Z,13.78
2019-01-12T06:52:42.480Z,16.85
2019-01-12T06:55:39.623Z,15.18
2019-01-12T06:58:42.407Z,12.18
2019-01-12T07:01:45.448Z,12.35
2019-01-12T07:04:48.233Z,24.43
2019-01-12T07:07:52.552Z,15.18
2019-01-12T07:10:55.592Z,13.90
2019-01-12T07:13:58.376Z,21.27
2019-01-12T07:17:01.417Z,14.90
2019-01-12T07:20:03.943Z,15.83
2019-01-12T07:23:06.988Z,12.80
2019-01-12T07:26:17.397Z,13.62
2019-01-12T07:29:14.356Z,17.27
2019-01-12T07:32:17.652Z,11.78
2019-01-12T07:35:20.699Z,12.28
2019-01-12T07:38:24.232Z,10.60
2019-01-12T07:41:27.273Z,18.70
2019-01-12T07:44:31.592Z,12.47
2019-01-12T07:47:34.634Z,12.13
2019-01-12T07:50:38.697Z,15.18
2019-01-12T07:53:42.763Z,11.30
2019-01-12T07:56:45.550Z,19.62
2019-01-12T07:59:48.330Z,12.07
2019-01-12T08:02:51.907Z,12.88
2019-01-12T08:05:54.665Z,15.48
2019-01-12T08:08:57.451Z,17.20
2019-01-12T08:12:01.258Z,11.12
2019-01-12T08:15:05.830Z,15.45
2019-01-12T08:18:09.946Z,17.62
2019-01-12T08:21:12.937Z,13.05
2019-01-12T08:24:15.721Z,8.85
2019-01-12T08:27:18.762Z,8.75
2019-01-12T08:30:22.311Z,8.05
2019-01-12T08:33:21.704Z,10.98
2019-01-12T08:36:25.067Z,10.55
2019-01-12T08:39:28.102Z,9.05
2019-01-12T08:42:30.893Z,11.68
2019-01-12T08:45:33.929Z,10.93
2019-01-12T08:48:33.415Z,12.90
2019-01-12T08:51:36.202Z,14.18
2019-01-12T08:54:39.464Z,11.15
2019-01-12T08:57:44.041Z,10.40
2019-01-12T09:00:47.083Z,15.58
2019-01-12T09:03:50.126Z,16.00
2019-01-12T09:06:53.685Z,7.87
2019-01-12T09:09:57.992Z,8.78
2019-01-12T09:13:01.288Z,6.83
2019-01-12T09:16:04.335Z,12.65
2019-01-12T09:19:08.139Z,11.70
2019-01-12T09:22:24.875Z,9.70
2019-01-12T09:25:31.406Z,10.93
2019-01-12T09:28:37.251Z,13.90
2019-01-12T09:31:42.067Z,16.05
2019-01-12T09:34:49.238Z,7.83
2019-01-12T09:37:53.772Z,10.18
2019-01-12T09:40:56.811Z,10.98
2019-01-12T09:43:59.593Z,8.20
2019-01-12T09:47:02.396Z,7.15
2019-01-12T09:50:05.927Z,8.75
2019-01-12T09:53:08.716Z,8.80
2019-01-12T09:56:11.496Z,14.58
2019-01-12T09:59:14.279Z,11.10
2019-01-12T10:02:17.327Z,10.63
2019-01-12T10:05:20.620Z,9.65
2019-01-12T10:08:24.170Z,6.15
2019-01-12T10:11:28.236Z,8.58
2019-01-12T10:14:31.270Z,11.83
2019-01-12T10:17:34.314Z,6.92
2019-01-12T10:20:37.351Z,7.97
2019-01-12T10:23:40.139Z,9.43
2019-01-12T10:26:43.178Z,7.50
2019-01-12T10:29:46.473Z,9.48
2019-01-12T10:32:49.511Z,5.85
2019-01-12T10:35:55.882Z,8.63
2019-01-12T10:38:59.179Z,4.70
2019-01-12T10:42:01.960Z,6.67
2019-01-12T10:45:05.255Z,8.85
2019-01-12T10:48:08.296Z,9.10
2019-01-12T10:51:11.593Z,3.80
2019-01-12T10:54:15.145Z,8.95
2019-01-12T10:57:19.462Z,5.17
2019-01-12T11:00:22.250Z,4.47
2019-01-12T11:03:25.543Z,7.12
2019-01-12T11:06:28.839Z,10.05
2019-01-12T11:09:32.134Z,7.78
2019-01-12T11:12:35.688Z,5.33
2019-01-12T11:15:38.481Z,5.05
2019-01-12T11:18:41.510Z,6.65
2019-01-12T11:21:44.295Z,9.95
2019-01-12T11:24:47.591Z,5.75
2019-01-12T11:27:50.633Z,8.70
2019-01-12T11:30:53.678Z,7.00
2019-01-12T11:33:57.478Z,5.58
2019-01-12T11:37:00.291Z,7.22
2019-01-12T11:40:04.071Z,11.97
2019-01-12T11:43:07.113Z,8.00
2019-01-12T11:46:10.412Z,4.65
2019-01-12T11:49:13.446Z,8.55
2019-01-12T11:52:16.745Z,5.78
2019-01-12T11:55:19.786Z,5.05
2019-01-12T11:58:22.829Z,4.58
2019-01-12T12:01:26.630Z,5.95
2019-01-12T12:04:30.956Z,4.20
2019-01-12T12:07:33.992Z,8.05
2019-01-12T12:10:40.872Z,4.90
2019-01-12T12:13:44.168Z,4.05
2019-01-12T12:16:47.215Z,4.83
2019-01-12T12:23:05.319Z,4.22
2019-01-12T12:26:08.104Z,6.80
2019-01-12T12:29:11.144Z,4.10
2019-01-12T12:32:10.610Z,5.20
2019-01-12T12:35:13.896Z,8.30
2019-01-12T12:38:16.936Z,5.65
2019-01-12T12:41:19.975Z,8.05
2019-01-12T12:44:23.273Z,6.55
2019-01-12T12:47:27.337Z,5.78
2019-01-12T12:50:30.375Z,5.03
2019-01-12T12:53:27.910Z,5.92
2019-01-12T12:56:32.359Z,4.67
2019-01-12T12:59:35.656Z,4.80
2019-01-12T13:02:38.695Z,5.35
2019-01-12T13:05:41.478Z,5.45
2019-01-12T13:08:48.458Z,6.60
2019-01-12T13:11:47.307Z,9.95
2019-01-12T13:14:50.346Z,2.72
2019-01-12T13:17:53.385Z,8.30
2019-01-12T13:20:56.168Z,9.38
2019-01-12T13:23:59.229Z,7.28
2019-01-12T13:27:01.992Z,4.05
2019-01-12T13:30:05.038Z,4.15
2019-01-12T13:33:07.820Z,6.60
2019-01-12T13:36:10.866Z,4.85
2019-01-12T13:39:10.571Z,4.30
2019-01-12T13:42:13.616Z,5.47
2019-01-12T13:45:13.461Z,5.10
2019-01-12T13:48:16.365Z,5.53
2019-01-12T13:51:22.120Z,4.72
2019-01-12T13:54:25.900Z,5.08
2019-01-12T13:57:29.633Z,4.15
2019-01-12T14:00:33.897Z,3.72
2019-01-12T14:03:37.450Z,7.50
2019-01-12T14:06:40.232Z,4.60
2019-01-12T14:09:45.064Z,7.10
2019-01-12T14:12:48.360Z,9.35
2019-01-12T14:15:53.474Z,5.67
2019-01-12T14:18:57.290Z,5.15
2019-01-12T14:22:02.604Z,7.15
2019-01-12T14:25:05.904Z,4.20
2019-01-12T14:28:09.967Z,7.40
2019-01-12T14:31:13.272Z,5.67
2019-01-12T14:34:17.073Z,6.62
2019-01-12T14:37:20.114Z,4.95
2019-01-12T14:40:23.156Z,6.80
2019-01-12T14:43:27.750Z,5.80
2019-01-12T14:46:32.056Z,6.08
2019-01-12T14:49:34.825Z,5.20
2019-01-12T14:52:38.888Z,5.65
2019-01-12T14:55:42.183Z,4.45
2019-01-12T14:58:44.980Z,7.22
2019-01-12T15:01:50.831Z,6.53
2019-01-12T15:04:53.357Z,4.53
2019-01-12T15:07:57.417Z,3.80
2019-01-12T15:11:00.199Z,4.20
2019-01-12T15:14:03.495Z,5.92
2019-01-12T15:17:06.035Z,5.67
2019-01-12T15:20:10.601Z,2.67
2019-01-12T15:23:16.202Z,3.50
2019-01-12T15:26:19.495Z,3.45
2019-01-12T15:29:22.552Z,6.08
2019-01-12T15:32:25.321Z,3.85
2019-01-12T15:35:28.104Z,4.70
2019-01-12T15:38:32.424Z,5.50
2019-01-12T15:41:35.465Z,2.98
2019-01-12T15:44:38.760Z,6.85
2019-01-12T15:47:42.825Z,3.47
2019-01-12T15:50:46.119Z,2.70
2019-01-12T15:53:49.985Z,2.62
2019-01-12T15:56:52.967Z,4.15
2019-01-12T15:59:57.030Z,3.40
2019-01-12T16:03:01.607Z,4.65
2019-01-12T16:06:04.650Z,3.40
2019-01-12T16:09:07.943Z,3.65
2019-01-12T16:12:10.989Z,4.05
2019-01-12T16:15:17.098Z,5.45
2019-01-12T16:19:29.064Z,4.17
2019-01-12T16:22:32.553Z,6.10
2019-01-12T16:25:36.452Z,2.85
2019-01-12T16:28:39.657Z,4.60
2019-01-12T16:31:42.956Z,6.08
2019-01-12T16:34:46.502Z,7.05
2019-01-12T16:37:50.069Z,9.28
2019-01-12T16:40:53.613Z,6.28
2019-01-12T16:43:56.649Z,8.05
2019-01-12T16:47:00.207Z,6.40
2019-01-12T16:50:03.243Z,5.25
2019-01-12T16:53:06.286Z,4.47
2019-01-12T16:56:09.321Z,10.53
2019-01-12T16:59:13.382Z,7.00
2019-01-12T17:02:16.169Z,7.78
2019-01-12T17:05:19.976Z,7.80
2019-01-12T17:08:23.273Z,7.78
2019-01-12T17:11:26.571Z,10.43
2019-01-12T17:14:29.357Z,5.87
2019-01-12T17:17:28.562Z,5.95
2019-01-12T17:20:31.847Z,5.28
2019-01-12T17:23:29.160Z,7.15
2019-01-12T17:26:32.296Z,5.60
2019-01-12T17:29:37.126Z,7.83
2019-01-12T17:32:40.942Z,15.68
2019-01-12T17:35:43.980Z,6.97
2019-01-12T17:38:47.015Z,7.80
2019-01-12T17:41:50.314Z,12.82
2019-01-12T17:44:53.864Z,8.20
2019-01-12T17:47:57.159Z,9.00
2019-01-12T17:51:00.972Z,13.75
2019-01-12T17:54:04.266Z,13.45
2019-01-12T17:57:07.566Z,8.95
2019-01-12T18:00:11.628Z,21.50
2019-01-12T18:03:14.920Z,10.72
2019-01-12T18:06:18.981Z,7.50
2019-01-12T18:09:22.024Z,21.48
2019-01-12T18:12:25.065Z,11.78
2019-01-12T18:15:28.104Z,18.98
2019-01-12T18:18:31.145Z,13.28
2019-01-12T18:21:34.185Z,9.25
2019-01-12T18:24:27.247Z,12.88
2019-01-12T18:27:20.808Z,10.78
2019-01-12T18:30:13.863Z,11.68
2019-01-12T18:33:06.919Z,5.55
2019-01-12T18:35:59.789Z,6.45
2019-01-12T18:38:53.047Z,10.82
2019-01-12T18:41:46.344Z,6.78
2019-01-12T18:44:40.424Z,10.75
2019-01-12T18:47:34.762Z,12.20
2019-01-12T18:50:28.078Z,4.92
2019-01-12T18:53:20.875Z,6.78
2019-01-12T18:56:13.926Z,6.62
2019-01-12T18:59:06.984Z,9.88
2019-01-12T19:02:00.041Z,10.68
2019-01-12T19:07:58.697Z,8.63
2019-01-12T19:10:47.663Z,5.80
2019-01-12T19:13:41.223Z,6.28
2019-01-12T19:16:30.184Z,5.10
2019-01-12T19:19:23.760Z,5.70
2019-01-12T19:22:17.319Z,4.15
2019-01-12T19:25:10.123Z,5.08
2019-01-12T19:28:03.945Z,3.58
2019-01-12T19:30:57.010Z,8.80
2019-01-12T19:33:49.800Z,3.67
2019-01-12T19:36:42.867Z,3.40
2019-01-12T19:39:40.008Z,7.05
2019-01-12T19:42:33.322Z,3.62
2019-01-12T19:45:48.698Z,7.85
2019-01-12T19:48:49.751Z,11.22
2019-01-12T19:51:46.023Z,11.22
2019-01-12T19:54:39.084Z,11.12
2019-01-12T19:57:32.135Z,12.85
2019-01-12T20:00:26.214Z,9.30
2019-01-12T20:03:20.552Z,6.12
2019-01-12T20:06:17.169Z,7.47
2019-01-12T20:09:06.410Z,6.05
2019-01-12T20:11:55.636Z,4.65
2019-01-12T20:14:48.686Z,2.42
2019-01-12T20:17:42.255Z,4.10
2019-01-12T20:20:35.822Z,4.60
2019-01-12T20:23:28.621Z,45.38
2019-01-12T20:26:21.671Z,3.58
2019-01-12T20:29:20.843Z,7.28
2019-01-12T20:32:27.755Z,3.98
2019-01-12T20:35:45.127Z,4.37
2019-01-12T20:38:49.452Z,3.20
2019-01-12T20:41:47.114Z,7.30
2019-01-12T20:45:09.612Z,5.00
2019-01-12T20:48:25.974Z,7.37
2019-01-12T20:51:31.308Z,3.87
2019-01-12T20:54:42.297Z,5.45
2019-01-12T20:57:48.139Z,2.40
2019-01-12T21:00:52.200Z,2.90
2019-01-12T21:04:12.143Z,7.35
2019-01-12T21:07:16.973Z,6.03
2019-01-12T21:10:21.295Z,5.15
2019-01-12T21:13:24.330Z,3.47
2019-01-12T21:16:23.793Z,6.28
2019-01-12T21:19:17.898Z,4.03
2019-01-12T21:22:22.449Z,5.25
2019-01-12T21:25:15.497Z,2.15
2019-01-12T21:28:09.690Z,3.47
2019-01-12T21:31:04.939Z,4.42
2019-01-12T21:33:59.790Z,9.78
2019-01-12T21:36:53.096Z,7.30
2019-01-12T21:39:46.661Z,3.02
2019-01-12T21:42:40.487Z,4.75
2019-01-12T21:45:34.644Z,4.15
2019-01-12T21:48:27.894Z,6.80
2019-01-12T21:51:20.679Z,5.10
2019-01-12T21:54:14.247Z,4.80
2019-01-12T21:57:15.494Z,3.25
2019-01-12T22:00:08.553Z,2.27
2019-01-12T22:02:57.770Z,3.45
2019-01-12T22:05:52.105Z,6.97
2019-01-12T22:08:46.446Z,5.80
2019-01-12T22:11:39.242Z,4.17
2019-01-12T22:14:34.092Z,6.85
2019-01-12T22:17:23.367Z,5.12
2019-01-12T22:20:16.621Z,2.20
2019-01-12T22:23:05.834Z,5.55
2019-01-12T22:25:58.889Z,4.92
2019-01-12T22:28:53.223Z,3.45
2019-01-12T22:31:47.814Z,6.28
2019-01-12T22:34:40.871Z,5.33
2019-01-12T22:37:33.684Z,2.10
2019-01-12T22:40:20.206Z,3.65
2019-01-12T22:43:13.127Z,9.88
2019-01-12T22:46:06.183Z,7.30
2019-01-12T22:48:59.502Z,4.58
2019-01-12T22:51:52.299Z,5.42
2019-01-12T22:54:45.359Z,6.35
2019-01-12T22:57:34.829Z,7.42
2019-01-12T23:00:35.308Z,9.80
2019-01-12T23:03:24.783Z,3.12
2019-01-12T23:06:19.118Z,7.12
2019-01-12T23:09:11.919Z,8.88
2019-01-12T23:12:05.233Z,8.55
2019-01-12T23:14:58.031Z,5.42
2019-01-12T23:17:51.338Z,7.40
2019-01-12T23:20:44.398Z,7.65
2019-01-12T23:23:37.964Z,8.03
2019-01-12T23:26:31.015Z,9.08
2019-01-12T23:29:23.824Z,7.12
2019-01-12T23:32:26.862Z,10.15
2019-01-12T23:35:19.912Z,7.28
2019-01-12T23:38:12.715Z,9.68
2019-01-12T23:41:05.775Z,8.75
2019-01-12T23:43:58.829Z,7.72
2019-01-12T23:46:52.646Z,5.90
2019-01-12T23:49:47.238Z,9.15
2019-01-12T23:52:41.318Z,9.03
2019-01-12T23:55:30.870Z,4.17
2019-01-12T23:58:23.596Z,7.17
